Time;durP1;ratioP1;P1;durP2;ratioP2;P2;SDS_P1;SDS_P2;PMS_P1;PMS_P2;Temp;Humidity;BMP_temperature;BMP_pressure;BME280_temperature;BME280_humidity;BME280_pressure;Samples;Min_cycle;Max_cycle;Signal;HPM_P1;HPM_P2
2023/01/06 00:05:02;;;;;;;9.70;2.58;;;;;;;6.82;100.00;98796.03;15268248;19;20022;-64
2023/01/06 00:10:29;;;;;;;8.55;2.40;;;;;;;6.83;100.00;98800.41;15274034;19;20037;-62
2023/01/06 00:15:54;;;;;;;9.23;2.47;;;;;;;6.85;100.00;98793.13;15273585;19;20014;-63
2023/01/06 00:21:25;;;;;;;8.10;2.45;;;;;;;6.87;100.00;98809.06;15270253;19;20037;-64
2023/01/06 00:26:53;;;;;;;10.23;2.30;;;;;;;6.85;100.00;98806.50;15283769;19;20493;-61
2023/01/06 00:32:17;;;;;;;8.57;2.40;;;;;;;6.87;100.00;98793.84;15285605;19;20089;-62
2023/01/06 00:37:42;;;;;;;9.45;2.63;;;;;;;6.89;100.00;98797.25;15288952;19;20082;-63
2023/01/06 00:43:09;;;;;;;9.30;2.38;;;;;;;6.92;100.00;98796.13;15287221;19;20826;-63
2023/01/06 00:48:34;;;;;;;8.20;2.30;;;;;;;6.92;100.00;98790.78;15285926;19;20082;-64
2023/01/06 00:54:21;;;;;;;8.55;2.40;;;;;;;6.94;100.00;98788.81;15289866;19;20013;-64
2023/01/06 00:59:49;;;;;;;7.25;2.08;;;;;;;6.96;100.00;98781.50;15280940;19;20078;-62
2023/01/06 01:05:14;;;;;;;7.35;2.03;;;;;;;6.98;100.00;98776.88;15278649;19;20014;-62
2023/01/06 01:10:40;;;;;;;6.68;2.00;;;;;;;7.00;100.00;98782.94;15284764;19;20049;-61
2023/01/06 01:16:11;;;;;;;9.20;2.40;;;;;;;7.00;100.00;98780.25;15287627;19;20015;-60
2023/01/06 01:21:36;;;;;;;6.67;2.00;;;;;;;7.01;100.00;98778.44;15281653;19;20018;-63
2023/01/06 01:27:00;;;;;;;6.53;2.03;;;;;;;7.01;100.00;98781.97;15284296;19;20089;-64
2023/01/06 01:32:28;;;;;;;6.72;1.88;;;;;;;7.02;100.00;98772.94;15281361;19;20011;-61
2023/01/06 01:37:52;;;;;;;8.25;2.05;;;;;;;7.04;100.00;98767.47;15280224;19;20039;-63
2023/01/06 01:43:17;;;;;;;6.63;1.80;;;;;;;7.03;100.00;98771.97;15283238;19;20081;-60
2023/01/06 01:48:45;;;;;;;5.40;1.55;;;;;;;7.03;100.00;98776.50;15282690;19;20025;-61
2023/01/06 01:54:14;;;;;;;6.72;1.77;;;;;;;7.03;100.00;98769.28;15285659;19;20366;-64
2023/01/06 01:59:41;;;;;;;5.55;1.70;;;;;;;7.02;100.00;98772.94;15280542;19;20289;-63
2023/01/06 02:05:11;;;;;;;7.10;2.00;;;;;;;7.00;100.00;98766.84;15278784;19;20018;-64
2023/01/06 02:10:36;;;;;;;6.53;1.70;;;;;;;7.01;100.00;98763.19;15273245;19;20503;-63
2023/01/06 02:16:10;;;;;;;4.90;1.40;;;;;;;7.06;100.00;98771.72;15283713;19;20022;-63
2023/01/06 02:22:05;;;;;;;5.40;1.58;;;;;;;7.12;100.00;98759.63;15275697;19;20034;-64
2023/01/06 02:27:58;;;;;;;5.88;1.70;;;;;;;7.20;100.00;98767.84;15276731;19;20030;-62
2023/01/06 02:33:32;;;;;;;6.00;1.55;;;;;;;7.21;100.00;98764.19;15280572;19;20014;-65
2023/01/06 02:39:12;;;;;;;4.45;1.33;;;;;;;7.25;100.00;98754.06;15276070;19;20082;-62
2023/01/06 02:44:52;;;;;;;5.60;1.60;;;;;;;7.27;100.00;98749.41;15273290;19;20014;-63
2023/01/06 02:50:25;;;;;;;5.45;1.58;;;;;;;7.27;100.00;98746.72;15278864;19;20073;-65
2023/01/06 02:55:54;;;;;;;6.55;1.75;;;;;;;7.29;100.00;98749.31;15278845;19;20015;-62
2023/01/06 03:01:26;;;;;;;5.00;1.60;;;;;;;7.27;100.00;98741.38;15278033;19;20078;-63
2023/01/06 03:06:56;;;;;;;4.95;1.40;;;;;;;7.29;100.00;98743.94;15276415;19;20046;-65
2023/01/06 03:12:28;;;;;;;3.23;1.40;;;;;;;7.29;100.00;98747.44;15280101;19;20090;-62
2023/01/06 03:17:53;;;;;;;4.75;1.42;;;;;;;7.31;100.00;98764.25;15271993;19;20291;-60
2023/01/06 03:23:22;;;;;;;5.20;1.40;;;;;;;7.31;100.00;98764.25;15278017;19;20013;-62
2023/01/06 03:28:46;;;;;;;4.90;1.50;;;;;;;7.32;100.00;98757.91;15275547;19;20014;-63
2023/01/06 03:34:19;;;;;;;2.78;1.15;;;;;;;7.34;100.00;98752.41;15277512;19;20520;-62
2023/01/06 03:39:58;;;;;;;2.22;1.10;;;;;;;7.35;100.00;98754.94;15272177;19;20007;-61
2023/01/06 03:45:49;;;;;;;3.17;1.30;;;;;;;7.33;100.00;98750.72;15272979;19;20029;-64
2023/01/06 03:51:33;;;;;;;4.00;1.40;;;;;;;7.32;100.00;98744.53;15271633;19;20475;-64
2023/01/06 03:57:08;;;;;;;4.18;1.45;;;;;;;7.33;100.00;98727.47;15280715;19;20408;-64
2023/01/06 04:02:34;;;;;;;4.38;1.30;;;;;;;7.34;100.00;98731.84;15288023;19;20841;-64
2023/01/06 04:08:02;;;;;;;2.90;1.10;;;;;;;7.37;100.00;98730.72;15282890;19;20022;-63
2023/01/06 04:13:29;;;;;;;2.53;1.00;;;;;;;7.39;100.00;98729.59;15278241;19;20042;-62
2023/01/06 04:18:54;;;;;;;3.08;1.20;;;;;;;7.40;100.00;98723.25;15280581;19;20078;-62
2023/01/06 04:24:19;;;;;;;2.90;1.08;;;;;;;7.39;100.00;98721.53;15289259;19;20045;-63
2023/01/06 04:29:47;;;;;;;3.40;1.20;;;;;;;7.38;100.00;98725.22;15287200;19;20010;-62
2023/01/06 04:35:14;;;;;;;3.13;1.13;;;;;;;7.39;100.00;98718.88;15289995;19;20467;-60
2023/01/06 04:40:39;;;;;;;3.05;1.20;;;;;;;7.38;100.00;98706.44;15282127;19;20026;-61
2023/01/06 04:46:08;;;;;;;2.10;1.00;;;;;;;7.40;100.00;98701.81;15281640;19;20029;-62
2023/01/06 04:51:33;;;;;;;1.73;1.02;;;;;;;7.43;100.00;98694.47;15275056;19;20495;-62
2023/01/06 04:56:57;;;;;;;2.38;1.10;;;;;;;7.43;100.00;98684.59;15287743;19;20361;-62
2023/01/06 05:02:31;;;;;;;2.22;1.00;;;;;;;7.46;100.00;98684.34;15285490;19;20025;-62
2023/01/06 05:07:56;;;;;;;1.95;1.02;;;;;;;7.49;100.00;98668.00;15282006;19;20335;-59
2023/01/06 05:13:20;;;;;;;1.20;0.90;;;;;;;7.53;100.00;98661.34;15288525;19;20745;-63
2023/01/06 05:18:54;;;;;;;2.80;0.80;;;;;;;7.58;100.00;98662.78;15278885;19;20086;-62
2023/01/06 05:24:19;;;;;;;1.70;0.93;;;;;;;7.55;100.00;98669.28;15279015;19;20029;-61
2023/01/06 05:29:44;;;;;;;1.98;1.17;;;;;;;7.52;100.00;98667.72;15283789;19;20036;-58
2023/01/06 05:35:14;;;;;;;1.73;1.20;;;;;;;7.56;100.00;98687.91;15285705;19;20011;-59
2023/01/06 05:40:38;;;;;;;2.20;1.05;;;;;;;7.56;100.00;98700.47;15279487;19;20046;-60
2023/01/06 05:46:08;;;;;;;3.40;1.30;;;;;;;7.55;100.00;98701.44;15282994;19;20014;-60
2023/01/06 05:51:36;;;;;;;3.00;1.30;;;;;;;7.53;100.00;98698.06;15274480;19;20428;-60
2023/01/06 05:57:00;;;;;;;2.58;1.35;;;;;;;7.53;100.00;98698.06;15278881;19;20019;-59
2023/01/06 06:02:24;;;;;;;2.55;1.13;;;;;;;7.51;100.00;98702.69;15282268;19;20454;-59
2023/01/06 06:07:57;;;;;;;2.30;1.27;;;;;;;7.51;100.00;98702.69;15281207;19;20026;-58
2023/01/06 06:13:22;;;;;;;2.22;1.23;;;;;;;7.51;100.00;98689.28;15283697;19;20701;-60
2023/01/06 06:18:51;;;;;;;2.22;1.20;;;;;;;7.51;100.00;98689.28;15280942;19;20010;-60
2023/01/06 06:24:18;;;;;;;1.10;1.02;;;;;;;7.51;100.00;98689.28;15277547;19;20526;-58
2023/01/06 06:29:43;;;;;;;1.60;1.17;;;;;;;7.55;100.00;98680.00;15271567;19;20019;-54
2023/01/06 06:35:07;;;;;;;1.25;1.10;;;;;;;7.56;100.00;98665.63;15282670;19;20375;-56
2023/01/06 06:40:35;;;;;;;2.00;1.00;;;;;;;7.58;100.00;98674.38;15279526;19;20042;-60
2023/01/06 06:45:59;;;;;;;1.35;0.90;;;;;;;7.59;100.00;98673.38;15280957;19;20078;-59
2023/01/06 06:51:24;;;;;;;2.08;1.00;;;;;;;7.63;100.00;98660.56;15276728;19;20025;-60
2023/01/06 06:56:51;;;;;;;0.70;0.70;;;;;;;7.68;100.00;98669.03;15276979;19;20022;-55
2023/01/06 07:02:16;;;;;;;1.40;0.50;;;;;;;7.74;100.00;98675.66;15271991;19;20014;-57
2023/01/06 07:07:40;;;;;;;3.70;0.70;;;;;;;7.77;100.00;98653.94;15276037;19;20078;-55
2023/01/06 07:13:08;;;;;;;1.67;0.80;;;;;;;7.79;100.00;98654.66;15225128;19;20014;-59
2023/01/06 07:18:32;;;;;;;0.90;0.60;;;;;;;7.80;100.00;98656.38;15278097;19;20022;-61
2023/01/06 07:23:57;;;;;;;1.30;0.75;;;;;;;7.78;100.00;98656.47;15280260;19;20472;-61
2023/01/06 07:29:24;;;;;;;1.98;0.70;;;;;;;7.79;100.00;98652.81;15270545;19;20038;-58
2023/01/06 07:34:49;;;;;;;1.52;0.80;;;;;;;7.80;100.00;98659.88;15284931;19;20015;-57
2023/01/06 07:40:16;;;;;;;1.17;0.80;;;;;;;7.80;100.00;98664.41;15290188;19;20042;-59
2023/01/06 07:45:44;;;;;;;0.75;0.52;;;;;;;7.84;100.00;98657.75;15292476;19;20101;-61
2023/01/06 07:51:08;;;;;;;0.40;0.40;;;;;;;7.91;100.00;98632.09;15286724;19;20107;-61
2023/01/06 07:56:33;;;;;;;0.70;0.50;;;;;;;7.89;100.00;98647.47;15297509;19;20018;-62
2023/01/06 08:02:00;;;;;;;0.50;0.50;;;;;;;7.92;100.00;98641.84;15281328;19;20078;-60
2023/01/06 08:07:25;;;;;;;1.13;0.65;;;;;;;7.92;100.00;98628.44;15283519;19;20018;-61
2023/01/06 08:12:50;;;;;;;1.52;0.90;;;;;;;7.96;100.00;98635.19;15291307;19;20118;-62
2023/01/06 08:18:17;;;;;;;1.10;0.90;;;;;;;8.00;100.00;98636.63;15289442;19;20018;-60
2023/01/06 08:23:48;;;;;;;0.90;0.90;;;;;;;8.09;100.00;98626.03;15292279;19;20516;-60
2023/01/06 08:29:13;;;;;;;0.93;0.80;;;;;;;8.15;100.00;98623.63;15287579;19;20021;-60
2023/01/06 08:34:40;;;;;;;0.95;0.80;;;;;;;8.23;100.00;98636.34;15287026;19;20019;-62
2023/01/06 08:40:06;;;;;;;1.00;0.90;;;;;;;8.31;100.00;98641.03;15281882;19;20014;-60
2023/01/06 08:45:30;;;;;;;0.80;0.70;;;;;;;8.37;100.00;98647.66;15289662;19;20022;-59
2023/01/06 08:50:58;;;;;;;0.73;0.73;;;;;;;8.41;100.00;98654.44;15286874;19;20019;-58
2023/01/06 08:56:25;;;;;;;0.95;0.90;;;;;;;8.44;100.00;98651.47;15288695;19;20074;-59
2023/01/06 09:01:49;;;;;;;1.38;1.20;;;;;;;8.50;100.00;98650.94;15281166;19;20082;-60
2023/01/06 09:07:17;;;;;;;2.28;0.90;;;;;;;8.53;100.00;98658.69;15286605;19;20794;-61
2023/01/06 09:12:41;;;;;;;0.73;0.70;;;;;;;8.60;100.00;98657.16;15287768;19;20078;-62
2023/01/06 09:18:07;;;;;;;1.45;1.20;;;;;;;8.66;100.00;98650.34;15285689;19;20040;-60
2023/01/06 09:23:42;;;;;;;1.83;1.20;;;;;;;8.73;100.00;98632.66;15283017;19;20086;-60
2023/01/06 09:28:59;;;;;;;1.35;0.90;;;;;;;8.80;100.00;98608.75;15280560;19;20022;-57
2023/01/06 09:34:24;;;;;;;0.95;0.70;;;;;;;8.81;100.00;98613.13;15284025;19;20493;-63
2023/01/06 09:39:52;;;;;;;0.57;0.50;;;;;;;8.79;100.00;98609.75;15278634;19;20011;-64
2023/01/06 09:45:20;;;;;;;1.17;0.45;;;;;;;8.77;100.00;98622.47;15287598;19;20010;-61
2023/01/06 09:50:49;;;;;;;2.15;0.30;;;;;;;8.75;100.00;98619.09;15280572;19;20020;-62
2023/01/06 09:56:19;;;;;;;0.32;0.25;;;;;;;8.80;100.00;98611.44;15284983;19;20018;-62
2023/01/06 10:01:49;;;;;;;0.30;0.17;;;;;;;8.85;100.00;98614.56;15280235;19;20479;-61
2023/01/06 10:07:21;;;;;;;0.35;0.22;;;;;;;8.89;100.00;98599.81;15278947;19;20025;-61
2023/01/06 10:13:00;;;;;;;0.90;0.20;;;;;;;8.89;100.00;98605.19;15279394;19;20018;-59
2023/01/06 10:18:34;;;;;;;0.30;0.22;;;;;;;8.91;100.00;98605.88;15285380;19;20024;-62
2023/01/06 10:24:32;;;;;;;0.50;0.20;;;;;;;8.91;100.00;98605.88;15283787;19;20359;-60
2023/01/06 10:30:03;;;;;;;0.32;0.22;;;;;;;9.03;100.00;98609.25;15280410;19;20062;-62
2023/01/06 10:35:31;;;;;;;0.80;0.10;;;;;;;9.11;100.00;98595.09;15289483;19;20025;-62
2023/01/06 10:41:04;;;;;;;0.35;0.20;;;;;;;9.11;100.00;98584.34;15277626;19;20024;-61
2023/01/06 10:46:34;;;;;;;1.48;0.10;;;;;;;9.11;100.00;98581.66;15278287;19;20097;-63
2023/01/06 10:52:03;;;;;;;0.28;0.10;;;;;;;9.09;100.00;98578.25;15281628;19;20014;-60
2023/01/06 10:57:32;;;;;;;0.20;0.20;;;;;;;9.15;100.00;98601.84;15282237;19;20029;-61
2023/01/06 11:03:06;;;;;;;0.22;0.10;;;;;;;9.28;100.00;98582.72;15281165;19;20014;-62
2023/01/06 11:08:43;;;;;;;0.30;0.10;;;;;;;9.37;100.00;98564.81;15276899;19;20099;-62
2023/01/06 11:14:11;;;;;;;0.55;0.20;;;;;;;9.36;100.00;98560.44;15275198;19;20359;-62
2023/01/06 11:19:47;;;;;;;0.80;0.20;;;;;;;9.39;100.00;98552.06;15271822;19;20042;-61
2023/01/06 11:25:33;;;;;;;0.28;0.20;;;;;;;9.32;100.00;98557.19;15280548;19;20018;-62
2023/01/06 11:31:01;;;;;;;0.22;0.20;;;;;;;9.35;100.00;98550.69;15275663;19;20018;-61
2023/01/06 11:36:31;;;;;;;1.15;1.08;;;;;;;9.34;100.00;98551.69;15280135;19;20021;-61
2023/01/06 11:41:58;;;;;;;1.20;0.35;;;;;;;9.28;100.00;98560.34;15273193;19;20039;-60
2023/01/06 11:47:26;;;;;;;0.65;0.20;;;;;;;9.30;100.00;98544.91;15271943;19;20014;-63
2023/01/06 11:53:03;;;;;;;1.00;0.20;;;;;;;9.28;100.00;98549.59;14761391;19;10000625;-61
2023/01/06 11:58:37;;;;;;;0.25;0.20;;;;;;;9.37;100.00;98532.53;15277913;19;20018;-61
2023/01/06 12:04:12;;;;;;;0.47;0.30;;;;;;;9.37;100.00;98511.91;15279756;19;20021;-59
2023/01/06 12:09:45;;;;;;;0.60;0.20;;;;;;;9.44;100.00;98495.16;15273249;19;20490;-62
2023/01/06 12:15:14;;;;;;;0.38;0.25;;;;;;;9.60;100.00;98510.59;15277454;19;20037;-59
2023/01/06 12:20:49;;;;;;;0.40;0.30;;;;;;;9.93;100.00;98494.78;15277121;19;20480;-61
2023/01/06 12:26:21;;;;;;;0.50;0.25;;;;;;;10.11;100.00;98498.28;15291532;19;20500;-61
2023/01/06 12:31:55;;;;;;;0.30;0.20;;;;;;;10.12;100.00;98499.97;15285577;19;20022;-61
2023/01/06 12:37:26;;;;;;;0.55;0.20;;;;;;;10.06;100.00;98500.56;15290734;19;20018;-63
2023/01/06 12:43:02;;;;;;;0.15;0.15;;;;;;;10.02;100.00;98489.28;15290919;19;20031;-63
2023/01/06 12:48:37;;;;;;;0.60;0.30;;;;;;;9.96;100.00;98478.28;15283560;19;20029;-60
2023/01/06 12:54:07;;;;;;;0.40;0.20;;;;;;;9.94;100.00;98493.75;15283589;19;20011;-60
2023/01/06 12:59:45;;;;;;;0.15;0.15;;;;;;;9.89;100.00;98494.22;15286587;19;20011;-77
2023/01/06 13:05:35;;;;;;;1.05;0.20;;;;;;;9.81;100.00;98503.09;15296887;19;20015;-78
2023/01/06 13:11:17;;;;;;;0.30;0.20;;;;;;;9.78;100.00;98516.84;15293079;19;20025;-78
2023/01/06 13:16:55;;;;;;;0.20;0.20;;;;;;;9.79;100.00;98514.97;15298457;19;20018;-78
2023/01/06 13:22:24;;;;;;;0.95;0.10;;;;;;;9.79;100.00;98521.22;15293033;19;20018;-78
2023/01/06 13:28:09;;;;;;;0.22;0.20;;;;;;;9.76;100.00;98516.16;15299701;19;20028;-78
2023/01/06 13:34:05;;;;;;;0.13;0.10;;;;;;;9.74;100.00;98523.53;15302914;19;20018;-78
2023/01/06 13:39:34;;;;;;;0.32;0.20;;;;;;;9.75;100.00;98525.22;15306030;19;20576;-78
2023/01/06 13:44:59;;;;;;;0.82;0.30;;;;;;;9.74;100.00;98528.91;15308695;19;20039;-79
2023/01/06 13:50:29;;;;;;;0.55;0.10;;;;;;;9.77;100.00;98531.28;15313136;19;20023;-79
2023/01/06 13:56:24;;;;;;;0.20;0.20;;;;;;;9.74;100.00;98526.22;15333281;19;20006;-78
2023/01/06 14:01:58;;;;;;;0.10;0.10;;;;;;;9.75;100.00;98524.38;15319510;19;20018;-78
2023/01/06 14:07:38;;;;;;;1.35;0.20;;;;;;;9.64;100.00;98530.81;15324845;19;20011;-78
2023/01/06 14:13:03;;;;;;;0.10;0.10;;;;;;;9.69;100.00;98531.22;15303344;19;20031;-77
2023/01/06 14:18:33;;;;;;;0.80;0.10;;;;;;;9.74;100.00;98528.91;15294760;19;20018;-77
2023/01/06 14:24:05;;;;;;;0.20;0.20;;;;;;;9.75;100.00;98533.28;15289681;19;20022;-75
2023/01/06 14:30:03;;;;;;;0.17;0.17;;;;;;;9.74;100.00;98536.13;15274513;19;20730;-76
2023/01/06 14:35:37;;;;;;;0.10;0.10;;;;;;;9.75;100.00;98554.81;15291027;19;20746;-78
2023/01/06 14:41:07;;;;;;;0.30;0.20;;;;;;;9.73;100.00;98564.88;15286314;19;20010;-77
2023/01/06 14:46:37;;;;;;;0.20;0.20;;;;;;;9.70;100.00;98571.41;15293778;19;20003;-77
2023/01/06 14:52:08;;;;;;;0.43;0.20;;;;;;;9.65;100.00;98567.47;15285798;19;20015;-77
2023/01/06 14:57:43;;;;;;;0.20;0.10;;;;;;;9.55;100.00;98573.78;15293448;19;20021;-76
2023/01/06 15:03:29;;;;;;;0.10;0.10;;;;;;;9.55;100.00;98579.16;15290320;19;20014;-78
2023/01/06 15:08:56;;;;;;;0.10;0.10;;;;;;;9.52;100.00;98574.06;15288461;19;20014;-77
2023/01/06 15:14:39;;;;;;;0.20;0.20;;;;;;;9.48;100.00;98588.81;15288059;19;20380;-77
2023/01/06 15:20:14;;;;;;;0.10;0.10;;;;;;;9.32;100.00;98592.16;15313595;19;20373;-78
2023/01/06 15:25:42;;;;;;;0.10;0.10;;;;;;;9.31;100.00;98603.91;15296268;19;20069;-76
2023/01/06 15:31:20;;;;;;;0.60;0.20;;;;;;;9.18;100.00;98604.25;15290922;19;20021;-79
2023/01/06 15:36:48;;;;;;;0.20;0.20;;;;;;;9.06;100.00;98618.88;15290408;19;20077;-79
2023/01/06 15:42:14;;;;;;;0.50;0.30;;;;;;;8.95;100.00;98609.13;15296137;19;20429;-77
2023/01/06 15:47:47;;;;;;;0.45;0.20;;;;;;;8.90;100.00;98623.00;15295333;19;20030;-78
2023/01/06 15:53:23;;;;;;;0.47;0.17;;;;;;;8.92;100.00;98623.72;15294790;19;20377;-79
2023/01/06 15:58:48;;;;;;;0.40;0.20;;;;;;;8.89;100.00;98621.31;15309643;19;20014;-81
2023/01/06 16:04:17;;;;;;;0.50;0.20;;;;;;;8.88;100.00;98634.91;15306177;19;20015;-79
2023/01/06 16:09:42;;;;;;;0.32;0.10;;;;;;;8.87;100.00;98633.19;15297598;19;20540;-81
2023/01/06 16:15:36;;;;;;;0.38;0.20;;;;;;;8.77;100.00;98627.84;15301015;19;20419;-77
2023/01/06 16:21:05;;;;;;;0.57;0.30;;;;;;;8.74;100.00;98630.84;15297453;19;20034;-77
2023/01/06 16:26:32;;;;;;;0.20;0.20;;;;;;;8.74;100.00;98636.22;15297017;19;20006;-80
2023/01/06 16:31:56;;;;;;;0.32;0.20;;;;;;;8.68;100.00;98631.41;15298175;19;20646;-78
2023/01/06 16:37:23;;;;;;;0.10;0.10;;;;;;;8.57;100.00;98627.88;15307449;19;20010;-76
2023/01/06 16:42:49;;;;;;;0.30;0.20;;;;;;;8.56;100.00;98638.78;15338792;19;20002;-78
2023/01/06 16:48:17;;;;;;;1.00;0.30;;;;;;;8.53;100.00;98647.94;15304789;19;20015;-79
2023/01/06 16:53:45;;;;;;;1.00;0.30;;;;;;;8.53;100.00;98658.69;15293123;19;20367;-79
2023/01/06 16:59:14;;;;;;;0.28;0.17;;;;;;;8.49;100.00;98659.97;15298102;19;20010;-78
2023/01/06 17:04:39;;;;;;;0.10;0.10;;;;;;;8.48;100.00;98655.59;15293292;19;20536;-79
2023/01/06 17:10:14;;;;;;;0.20;0.20;;;;;;;8.42;100.00;98650.75;15291935;19;20046;-77
2023/01/06 17:15:39;;;;;;;0.20;0.20;;;;;;;8.29;100.00;98662.63;15301339;19;20015;-77
2023/01/06 17:21:13;;;;;;;0.10;0.10;;;;;;;8.08;100.00;98680.69;15299913;19;20022;-78
2023/01/06 17:26:42;;;;;;;0.20;0.20;;;;;;;8.01;100.00;98683.94;15303135;19;20563;-78
2023/01/06 17:32:15;;;;;;;0.13;0.13;;;;;;;7.93;100.00;98691.84;15295820;19;20477;-79
2023/01/06 17:37:40;;;;;;;0.20;0.20;;;;;;;7.82;100.00;98691.94;15299003;19;20086;-78
2023/01/06 17:43:17;;;;;;;1.73;0.30;;;;;;;7.78;100.00;98685.97;15287202;19;20010;-77
2023/01/06 17:48:41;;;;;;;0.63;0.20;;;;;;;7.72;100.00;98698.09;15300759;19;20010;-78
2023/01/06 18:00:01;;;;;;;1.75;0.77;;;;;;;7.62;100.00;98694.56;15289570;19;20681;-77
2023/01/06 18:05:55;;;;;;;0.80;0.80;;;;;;;7.48;100.00;98700.28;15292087;19;20010;-76
2023/01/06 18:11:32;;;;;;;0.60;0.60;;;;;;;7.37;100.00;98693.19;15283193;19;20018;-78
2023/01/06 18:17:16;;;;;;;0.75;0.50;;;;;;;7.25;100.00;98708.50;15288067;19;20009;-78
2023/01/06 18:22:43;;;;;;;0.50;0.50;;;;;;;7.17;100.00;98716.34;15288892;19;20077;-78
2023/01/06 18:28:17;;;;;;;0.90;0.80;;;;;;;7.10;100.00;98718.72;15292394;19;20020;-78
2023/01/06 18:33:44;;;;;;;0.80;0.80;;;;;;;7.09;100.00;98717.00;15290792;19;20025;-79
2023/01/06 18:39:10;;;;;;;0.60;0.60;;;;;;;7.05;100.00;98726.31;15296203;19;20074;-78
2023/01/06 18:44:34;;;;;;;0.50;0.50;;;;;;;7.02;100.00;98738.13;15283584;19;20028;-78
2023/01/06 18:50:19;;;;;;;1.35;1.00;;;;;;;6.96;100.00;98735.97;15281789;19;21041;-79
2023/01/06 18:55:49;;;;;;;1.55;1.30;;;;;;;6.91;100.00;98743.53;15298045;19;20011;-79
2023/01/06 19:01:19;;;;;;;1.50;1.40;;;;;;;6.83;100.00;98732.63;15293001;19;20011;-80
2023/01/06 19:06:48;;;;;;;1.40;1.25;;;;;;;6.79;100.00;98740.91;15298048;19;20043;-79
2023/01/06 19:12:30;;;;;;;1.35;1.25;;;;;;;6.78;100.00;98749.94;15288309;19;20030;-79
2023/01/06 19:17:55;;;;;;;0.98;0.98;;;;;;;6.80;100.00;98744.47;15300901;19;20011;-79
2023/01/06 19:23:26;;;;;;;1.10;0.73;;;;;;;6.86;100.00;98748.44;15291941;19;20042;-79
2023/01/06 19:28:56;;;;;;;0.80;0.80;;;;;;;6.93;100.00;98749.63;15304341;19;20017;-78
2023/01/06 19:34:23;;;;;;;0.68;0.60;;;;;;;7.02;100.00;98748.00;15307877;19;20372;-79
2023/01/06 19:39:53;;;;;;;0.68;0.68;;;;;;;7.13;100.00;98744.38;15313745;19;20083;-79
2023/01/06 19:45:30;;;;;;;0.73;0.73;;;;;;;7.20;100.00;98734.84;15305005;19;20384;-79
2023/01/06 19:50:54;;;;;;;1.88;0.98;;;;;;;7.25;100.00;98738.84;15288348;19;20029;-77
2023/01/06 19:56:25;;;;;;;1.33;1.05;;;;;;;7.30;100.00;98741.13;15294041;19;20018;-77
2023/01/06 20:02:02;;;;;;;1.43;1.10;;;;;;;7.33;100.00;98748.91;15292253;19;20010;-78
2023/01/06 20:07:28;;;;;;;1.50;1.08;;;;;;;7.33;100.00;98735.50;15303276;19;20002;-80
2023/01/06 20:12:56;;;;;;;1.95;1.00;;;;;;;7.36;100.00;98729.84;15303858;19;20037;-79
2023/01/06 20:18:21;;;;;;;0.80;0.80;;;;;;;7.35;100.00;98738.03;15306390;19;20027;-78
2023/01/06 20:23:45;;;;;;;1.60;0.75;;;;;;;7.33;100.00;98745.34;15290505;19;20017;-78
2023/01/06 20:29:12;;;;;;;0.93;0.90;;;;;;;7.34;100.00;98736.34;15301514;19;20010;-77
2023/01/06 20:34:38;;;;;;;1.85;1.10;;;;;;;7.34;100.00;98742.56;15292634;19;20011;-80
2023/01/06 20:40:10;;;;;;;0.90;0.90;;;;;;;7.41;100.00;98756.25;15304061;19;20034;-81
2023/01/06 20:45:37;;;;;;;1.02;1.00;;;;;;;7.46;100.00;98763.91;15303004;19;20010;-80
2023/01/06 20:51:02;;;;;;;3.50;1.10;;;;;;;7.49;100.00;98758.28;15321152;19;20011;-80
2023/01/06 20:56:27;;;;;;;1.42;1.15;;;;;;;7.52;100.00;98763.38;15328726;19;20026;-80
2023/01/06 21:02:01;;;;;;;0.93;0.90;;;;;;;7.56;100.00;98756.78;15301611;19;20014;-80
2023/01/06 21:07:27;;;;;;;1.20;1.10;;;;;;;7.59;100.00;98755.66;15310068;19;20011;-80
2023/01/06 21:12:52;;;;;;;1.10;1.00;;;;;;;7.61;100.00;98762.56;15306045;19;20472;-80
2023/01/06 21:18:19;;;;;;;1.10;0.90;;;;;;;7.62;100.00;98766.13;15308663;19;20022;-80
2023/01/06 21:23:44;;;;;;;0.90;0.90;;;;;;;7.56;100.00;98756.78;15304487;19;20078;-79
2023/01/06 21:29:09;;;;;;;1.13;0.90;;;;;;;7.54;100.00;98761.41;15291503;19;20498;-79
2023/01/06 21:34:36;;;;;;;1.00;0.90;;;;;;;7.50;100.00;98752.78;15275282;19;20017;-79
2023/01/06 21:40:04;;;;;;;1.75;0.90;;;;;;;7.48;100.00;98753.88;15298082;19;20014;-80
2023/01/06 21:45:29;;;;;;;1.00;0.90;;;;;;;7.40;100.00;98763.47;15304297;19;20014;-80
2023/01/06 21:50:56;;;;;;;0.93;0.70;;;;;;;7.42;100.00;98763.31;15297462;19;20407;-80
2023/01/06 21:56:21;;;;;;;2.80;0.90;;;;;;;7.39;100.00;98767.13;15303991;19;20406;-82
2023/01/06 22:01:46;;;;;;;0.88;0.70;;;;;;;7.43;100.00;98772.22;15287614;19;20417;-83
2023/01/06 22:07:17;;;;;;;1.08;0.85;;;;;;;7.42;100.00;98778.56;15301089;19;20035;-80
2023/01/06 22:12:44;;;;;;;0.97;0.80;;;;;;;7.48;100.00;98770.84;15294488;19;20018;-79
2023/01/06 22:18:09;;;;;;;0.63;0.63;;;;;;;7.52;100.00;98774.09;15299239;19;20010;-80
2023/01/06 22:23:38;;;;;;;0.57;0.57;;;;;;;7.52;100.00;98766.06;15296101;19;20015;-80
2023/01/06 22:29:02;;;;;;;1.60;0.70;;;;;;;7.55;100.00;98774.69;15297689;19;20006;-80
2023/01/06 22:34:27;;;;;;;0.70;0.68;;;;;;;7.55;100.00;98774.69;15289020;19;20021;-80
2023/01/06 22:39:54;;;;;;;0.60;0.60;;;;;;;7.60;100.00;98784.16;15298993;19;20035;-80
2023/01/06 22:45:19;;;;;;;0.50;0.50;;;;;;;7.59;100.00;98777.94;15295797;19;20010;-81
2023/01/06 22:50:46;;;;;;;1.27;0.52;;;;;;;7.56;100.00;98783.59;15303090;19;20031;-80
2023/01/06 22:56:14;;;;;;;0.60;0.60;;;;;;;7.56;100.00;98788.94;15306689;19;20002;-79
2023/01/06 23:01:48;;;;;;;0.95;0.80;;;;;;;7.52;100.00;98790.19;15293150;19;20022;-78
2023/01/06 23:07:13;;;;;;;1.70;0.70;;;;;;;7.56;100.00;98772.88;15291029;19;20010;-78
2023/01/06 23:12:43;;;;;;;1.17;0.70;;;;;;;7.55;100.00;98772.00;15292199;19;20019;-79
2023/01/06 23:18:08;;;;;;;1.30;0.60;;;;;;;7.59;100.00;98772.56;15299228;19;20015;-78
2023/01/06 23:23:32;;;;;;;0.45;0.45;;;;;;;7.59;100.00;98758.34;15297296;19;20520;-79
2023/01/06 23:29:00;;;;;;;1.08;0.40;;;;;;;7.64;100.00;98740.84;15301303;19;20532;-79
2023/01/06 23:34:27;;;;;;;1.05;0.60;;;;;;;7.57;100.00;98737.03;15295865;19;20018;-79
2023/01/06 23:39:53;;;;;;;0.73;0.45;;;;;;;7.46;100.00;98729.91;15300428;19;20076;-79
2023/01/06 23:45:21;;;;;;;0.85;0.50;;;;;;;7.42;100.00;98733.81;15302664;19;20444;-79
2023/01/06 23:50:51;;;;;;;0.50;0.40;;;;;;;7.39;100.00;98729.59;15313526;19;20056;-79
2023/01/06 23:56:19;;;;;;;2.10;0.30;;;;;;;7.45;100.00;98751.50;15311350;19;20015;-80
